createdAt,value
2017-03-25T00:00:05.348Z,28.39
2017-03-25T00:01:14.117Z,28.29
2017-03-25T00:02:22.887Z,28.39
2017-03-25T00:03:31.651Z,28.58
2017-03-25T00:04:40.405Z,28.39
2017-03-25T00:05:49.168Z,28.29
2017-03-25T00:06:57.902Z,28.58
2017-03-25T00:08:06.922Z,28.58
2017-03-25T00:09:15.985Z,28.29
2017-03-25T00:10:24.716Z,28.58
2017-03-25T00:11:33.440Z,28.58
2017-03-25T00:12:42.699Z,28.67
2017-03-25T00:13:51.765Z,28.58
2017-03-25T00:15:00.509Z,28.58
2017-03-25T00:16:09.877Z,28.67
2017-03-25T00:17:18.598Z,28.39
2017-03-25T00:18:27.338Z,28.48
2017-03-25T00:19:36.059Z,28.87
2017-03-25T00:20:44.828Z,28.67
2017-03-25T00:21:53.594Z,28.77
2017-03-25T00:23:02.560Z,28.48
2017-03-25T00:24:11.624Z,28.77
2017-03-25T00:25:20.359Z,28.67
2017-03-25T00:26:29.085Z,28.67
2017-03-25T00:27:37.850Z,28.87
2017-03-25T00:28:46.912Z,28.87
2017-03-25T00:29:55.662Z,28.77
2017-03-25T00:31:04.731Z,28.58
2017-03-25T00:32:13.496Z,28.67
2017-03-25T00:33:22.248Z,28.58
2017-03-25T00:34:31.511Z,28.77
2017-03-25T00:35:40.275Z,28.67
2017-03-25T00:36:49.012Z,28.87
2017-03-25T00:37:57.730Z,28.87
2017-03-25T00:39:06.494Z,28.58
2017-03-25T00:40:15.249Z,28.58
2017-03-25T00:41:24.314Z,28.77
2017-03-25T00:42:33.079Z,28.76
2017-03-25T00:43:41.805Z,29.06
2017-03-25T00:44:50.830Z,28.66
2017-03-25T00:45:59.592Z,28.76
2017-03-25T00:47:08.352Z,28.56
2017-03-25T00:48:17.108Z,28.85
2017-03-25T00:49:26.500Z,28.97
2017-03-25T00:50:35.264Z,28.97
2017-03-25T00:51:44.033Z,28.76
2017-03-25T00:52:52.789Z,29.05
2017-03-25T00:54:01.504Z,29.06
2017-03-25T00:55:10.865Z,28.66
2017-03-25T00:56:19.928Z,28.85
2017-03-25T00:57:28.992Z,28.77
2017-03-25T00:58:38.054Z,28.97
2017-03-25T00:59:47.163Z,29.25
2017-03-25T01:00:56.207Z,28.95
2017-03-25T01:02:05.268Z,28.87
2017-03-25T01:03:14.029Z,28.95
2017-03-25T01:04:23.102Z,29.05
2017-03-25T01:05:31.869Z,29.05
2017-03-25T01:06:40.623Z,28.76
2017-03-25T01:07:49.695Z,28.85
2017-03-25T01:08:58.458Z,28.95
2017-03-25T01:10:07.518Z,28.76
2017-03-25T01:11:16.289Z,28.85
2017-03-25T01:12:25.050Z,28.85
2017-03-25T01:13:33.807Z,29.05
2017-03-25T01:14:42.558Z,28.85
2017-03-25T01:15:51.315Z,28.85
2017-03-25T01:17:00.074Z,28.76
2017-03-25T01:18:08.807Z,29.14
2017-03-25T01:19:17.822Z,29.05
2017-03-25T01:20:26.714Z,28.66
2017-03-25T01:21:35.733Z,28.76
2017-03-25T01:22:44.700Z,28.95
2017-03-25T01:23:53.764Z,29.05
2017-03-25T01:25:02.531Z,28.66
2017-03-25T01:26:11.594Z,28.95
2017-03-25T01:27:20.395Z,28.76
2017-03-25T01:28:29.158Z,28.76
2017-03-25T01:29:37.915Z,28.66
2017-03-25T01:30:46.674Z,29.05
2017-03-25T01:31:55.442Z,28.47
2017-03-25T01:33:05.050Z,28.66
2017-03-25T01:34:13.784Z,29.05
2017-03-25T01:35:22.801Z,28.56
2017-03-25T01:36:31.839Z,28.66
2017-03-25T01:37:40.530Z,29.05
2017-03-25T01:38:49.242Z,28.56
2017-03-25T01:39:58.005Z,29.05
2017-03-25T01:41:06.765Z,29.05
2017-03-25T01:42:15.523Z,28.47
2017-03-25T01:43:24.685Z,29.24
2017-03-25T01:44:33.759Z,29.24
2017-03-25T01:45:42.515Z,28.56
2017-03-25T01:46:51.881Z,28.47
2017-03-25T01:48:00.637Z,28.56
2017-03-25T01:49:09.403Z,29.05
2017-03-25T01:50:18.165Z,28.95
2017-03-25T01:51:26.929Z,28.47
2017-03-25T01:52:35.989Z,28.76
2017-03-25T01:53:44.726Z,29.24
2017-03-25T01:54:53.793Z,28.56
2017-03-25T01:56:02.865Z,28.95
2017-03-25T01:57:11.626Z,29.14
2017-03-25T01:58:20.387Z,29.14
2017-03-25T01:59:29.136Z,28.85
2017-03-25T02:00:37.871Z,28.66
2017-03-25T02:01:47.185Z,29.24
2017-03-25T02:02:55.941Z,28.95
2017-03-25T02:04:04.667Z,28.56
2017-03-25T02:05:13.728Z,28.47
2017-03-25T02:06:22.796Z,29.05
2017-03-25T02:07:31.562Z,29.14
2017-03-25T02:08:40.293Z,29.14
2017-03-25T02:09:49.315Z,28.56
2017-03-25T02:10:58.061Z,28.56
2017-03-25T02:12:06.760Z,29.14
2017-03-25T02:13:15.756Z,28.47
2017-03-25T02:14:24.537Z,29.14
2017-03-25T02:15:33.798Z,28.95
2017-03-25T02:16:42.529Z,29.14
2017-03-25T02:17:51.251Z,28.76
2017-03-25T02:19:00.319Z,28.56
2017-03-25T02:20:09.090Z,28.56
2017-03-25T02:21:18.444Z,28.56
2017-03-25T02:22:27.513Z,29.14
2017-03-25T02:23:36.271Z,28.47
2017-03-25T02:24:45.030Z,28.95
2017-03-25T02:25:53.795Z,29.03
2017-03-25T02:27:02.555Z,28.56
2017-03-25T02:28:11.280Z,28.66
2017-03-25T02:29:19.975Z,28.45
2017-03-25T02:30:28.783Z,28.66
2017-03-25T02:31:37.850Z,28.95
2017-03-25T02:32:47.103Z,28.64
2017-03-25T02:33:56.124Z,29.03
2017-03-25T02:35:05.501Z,28.74
2017-03-25T02:36:14.274Z,29.03
2017-03-25T02:37:23.319Z,28.64
2017-03-25T02:38:32.041Z,28.66
2017-03-25T02:39:41.144Z,29.03
2017-03-25T02:40:49.901Z,29.05
2017-03-25T02:41:58.660Z,28.66
2017-03-25T02:43:07.726Z,28.74
2017-03-25T02:44:16.488Z,28.64
2017-03-25T02:45:25.550Z,29.13
2017-03-25T02:46:34.609Z,28.55
2017-03-25T02:47:43.366Z,28.94
2017-03-25T02:48:52.100Z,28.94
2017-03-25T02:50:00.814Z,29.13
2017-03-25T02:51:09.578Z,29.03
2017-03-25T02:52:18.946Z,28.64
2017-03-25T02:53:28.313Z,28.64
2017-03-25T02:54:37.080Z,28.94
2017-03-25T02:55:46.449Z,28.55
2017-03-25T02:56:55.574Z,28.74
2017-03-25T02:58:04.954Z,29.22
2017-03-25T02:59:14.632Z,29.03
2017-03-25T03:00:24.611Z,28.74
2017-03-25T03:01:34.288Z,29.03
2017-03-25T03:02:43.372Z,28.64
2017-03-25T03:03:52.757Z,29.03
2017-03-25T03:05:02.439Z,29.03
2017-03-25T03:06:11.202Z,29.03
2017-03-25T03:07:20.539Z,28.74
2017-03-25T03:08:29.583Z,29.03
2017-03-25T03:09:38.615Z,29.03
2017-03-25T03:10:47.679Z,28.64
2017-03-25T03:11:56.747Z,29.13
2017-03-25T03:13:06.111Z,28.94
2017-03-25T03:14:15.475Z,29.03
2017-03-25T03:15:24.542Z,28.64
2017-03-25T03:16:33.336Z,28.74
2017-03-25T03:17:42.400Z,29.22
2017-03-25T03:18:51.447Z,29.13
2017-03-25T03:20:00.487Z,28.64
2017-03-25T03:21:09.249Z,29.13
2017-03-25T03:22:18.316Z,28.64
2017-03-25T03:23:27.396Z,28.45
2017-03-25T03:24:36.764Z,29.13
2017-03-25T03:25:47.018Z,29.32
2017-03-25T03:26:56.039Z,29.03
2017-03-25T03:28:04.801Z,28.64
2017-03-25T03:29:15.087Z,28.74
2017-03-25T03:30:24.051Z,28.74
2017-03-25T03:31:32.806Z,28.74
2017-03-25T03:32:42.220Z,28.64
2017-03-25T03:33:51.313Z,29.03
2017-03-25T03:35:00.052Z,28.74
2017-03-25T03:36:09.113Z,28.45
2017-03-25T03:37:17.876Z,28.55
2017-03-25T03:38:26.946Z,28.55
2017-03-25T03:39:36.319Z,29.03
2017-03-25T03:40:45.384Z,28.55
2017-03-25T03:41:54.150Z,28.45
2017-03-25T03:43:03.538Z,29.03
2017-03-25T03:44:12.905Z,29.03
2017-03-25T03:45:21.958Z,29.32
2017-03-25T03:46:31.256Z,28.84
2017-03-25T03:47:40.282Z,29.22
2017-03-25T03:48:50.579Z,29.32
2017-03-25T03:49:59.661Z,28.64
2017-03-25T03:51:09.061Z,28.94
2017-03-25T03:52:18.150Z,29.03
2017-03-25T03:53:26.941Z,28.94
2017-03-25T03:54:36.041Z,29.03
2017-03-25T03:55:45.757Z,29.32
2017-03-25T03:56:54.854Z,29.32
2017-03-25T03:58:03.979Z,29.03
2017-03-25T03:59:13.073Z,29.13
2017-03-25T04:00:21.858Z,28.94
2017-03-25T04:01:31.260Z,29.13
2017-03-25T04:02:40.669Z,29.22
2017-03-25T04:03:50.082Z,28.74
2017-03-25T04:04:59.797Z,29.52
2017-03-25T04:06:08.567Z,28.84
2017-03-25T04:07:17.629Z,29.13
2017-03-25T04:08:26.696Z,29.13
2017-03-25T04:09:36.365Z,29.32
2017-03-25T04:10:45.782Z,28.74
2017-03-25T04:11:54.572Z,28.74
2017-03-25T04:13:03.682Z,29.32
2017-03-25T04:14:12.790Z,29.13
2017-03-25T04:15:22.188Z,29.13
2017-03-25T04:16:31.292Z,29.42
2017-03-25T04:17:41.003Z,29.42
2017-03-25T04:18:51.022Z,29.22
2017-03-25T04:20:00.436Z,29.52
2017-03-25T04:21:09.831Z,29.52
2017-03-25T04:22:18.615Z,29.61
2017-03-25T04:23:27.710Z,29.52
2017-03-25T04:24:36.779Z,29.13
2017-03-25T04:25:46.170Z,29.03
2017-03-25T04:26:55.556Z,29.71
2017-03-25T04:28:04.623Z,28.94
2017-03-25T04:29:14.602Z,29.03
2017-03-25T04:30:24.292Z,29.52
2017-03-25T04:31:33.433Z,29.13
2017-03-25T04:32:42.208Z,29.13
2017-03-25T04:33:52.180Z,29.03
2017-03-25T04:35:01.850Z,29.03
2017-03-25T04:36:10.946Z,29.32
2017-03-25T04:37:20.049Z,28.92
2017-03-25T04:38:29.694Z,28.74
2017-03-25T04:39:38.782Z,29.32
2017-03-25T04:40:48.182Z,29.52
2017-03-25T04:41:57.265Z,29.5
2017-03-25T04:43:06.667Z,29.52
2017-03-25T04:44:16.283Z,29.41
2017-03-25T04:45:25.694Z,29.31
2017-03-25T04:46:34.479Z,29.13
2017-03-25T04:47:43.571Z,29.42
2017-03-25T04:48:53.289Z,29.5
2017-03-25T04:50:02.662Z,28.74
2017-03-25T04:51:11.407Z,29.21
2017-03-25T04:52:20.499Z,28.83
2017-03-25T04:53:30.175Z,29.22
2017-03-25T04:54:39.504Z,28.94
2017-03-25T04:55:48.879Z,29.03
2017-03-25T04:56:57.651Z,28.83
2017-03-25T04:58:06.747Z,29.32
2017-03-25T04:59:16.154Z,28.92
2017-03-25T05:00:25.754Z,28.92
2017-03-25T05:01:34.802Z,29.21
2017-03-25T05:02:44.214Z,28.92
2017-03-25T05:03:53.931Z,29.21
2017-03-25T05:05:03.342Z,29.11
2017-03-25T05:06:12.739Z,29.02
2017-03-25T05:07:22.441Z,29.21
2017-03-25T05:08:32.270Z,29.03
2017-03-25T05:09:41.937Z,29.02
2017-03-25T05:10:51.348Z,28.94
2017-03-25T05:12:00.431Z,28.92
2017-03-25T05:13:09.798Z,29.13
2017-03-25T05:14:19.457Z,29.32
2017-03-25T05:15:29.454Z,29.22
2017-03-25T05:16:38.493Z,28.94
2017-03-25T05:17:47.552Z,29.22
2017-03-25T05:18:57.249Z,29.03
2017-03-25T05:20:06.641Z,29.32
2017-03-25T05:21:15.731Z,29.32
2017-03-25T05:22:24.829Z,29.03
2017-03-25T05:23:34.236Z,29.32
2017-03-25T05:24:44.569Z,29.03
2017-03-25T05:25:53.364Z,29.02
2017-03-25T05:27:02.451Z,28.55
2017-03-25T05:28:11.855Z,28.74
2017-03-25T05:29:20.753Z,28.84
2017-03-25T05:30:33.207Z,28.55
2017-03-25T05:31:42.861Z,28.45
2017-03-25T05:32:51.955Z,28.55
2017-03-25T05:34:01.360Z,28.55
2017-03-25T05:35:10.461Z,29.13
2017-03-25T05:36:19.567Z,28.64
2017-03-25T05:37:28.332Z,28.84
2017-03-25T05:38:37.693Z,29.22
2017-03-25T05:39:46.778Z,29.13
2017-03-25T05:40:55.530Z,28.94
2017-03-25T05:42:04.635Z,28.84
2017-03-25T05:43:13.726Z,28.74
2017-03-25T05:44:23.180Z,28.84
2017-03-25T05:45:32.555Z,28.74
2017-03-25T05:46:41.293Z,28.74
2017-03-25T05:47:50.061Z,28.94
2017-03-25T05:48:59.731Z,28.84
2017-03-25T05:50:08.569Z,28.84
2017-03-25T05:51:17.666Z,28.74
2017-03-25T05:52:26.749Z,28.84
2017-03-25T05:53:36.170Z,28.84
2017-03-25T05:54:45.572Z,28.64
2017-03-25T05:55:54.662Z,28.64
2017-03-25T05:57:03.756Z,28.64
2017-03-25T05:58:13.785Z,28.55
2017-03-25T05:59:22.861Z,28.36
2017-03-25T06:00:32.118Z,28.66
2017-03-25T06:01:40.883Z,28.37
2017-03-25T06:02:50.243Z,28.85
2017-03-25T06:03:59.658Z,28.85
2017-03-25T06:05:09.377Z,28.85
2017-03-25T06:06:18.777Z,28.85
2017-03-25T06:07:27.835Z,28.37
2017-03-25T06:08:37.204Z,28.56
2017-03-25T06:09:46.900Z,28.28
2017-03-25T06:10:55.956Z,28.56
2017-03-25T06:12:05.558Z,28.56
2017-03-25T06:13:14.511Z,28.28
2017-03-25T06:14:23.623Z,28.28
2017-03-25T06:15:32.687Z,28.37
2017-03-25T06:16:41.783Z,28.18
2017-03-25T06:17:51.194Z,28.47
2017-03-25T06:19:00.621Z,28.08
2017-03-25T06:20:09.724Z,28.28
2017-03-25T06:21:19.438Z,28.08
2017-03-25T06:22:28.208Z,28.47
2017-03-25T06:23:37.882Z,28.28
2017-03-25T06:24:47.294Z,28.18
2017-03-25T06:25:56.668Z,28.28
2017-03-25T06:27:05.717Z,28.37
2017-03-25T06:28:14.807Z,28.28
2017-03-25T06:29:23.886Z,28.37
2017-03-25T06:30:33.148Z,28.08
2017-03-25T06:31:41.936Z,28.28
2017-03-25T06:32:51.337Z,28.28
2017-03-25T06:34:00.425Z,28.56
2017-03-25T06:35:09.847Z,28.18
2017-03-25T06:36:18.639Z,27.98
2017-03-25T06:37:28.013Z,28.29
2017-03-25T06:38:36.954Z,28.09
2017-03-25T06:39:46.935Z,28
2017-03-25T06:40:57.006Z,28.09
2017-03-25T06:42:06.106Z,28.19
2017-03-25T06:43:15.190Z,28
2017-03-25T06:44:24.917Z,27.91
2017-03-25T06:45:33.707Z,27.81
2017-03-25T06:46:42.491Z,27.81
2017-03-25T06:47:51.558Z,27.91
2017-03-25T06:49:00.915Z,27.71
2017-03-25T06:50:10.208Z,28.09
2017-03-25T06:51:19.616Z,27.91
2017-03-25T06:52:28.370Z,27.81
2017-03-25T06:53:37.433Z,27.51
2017-03-25T06:54:46.827Z,27.61
2017-03-25T06:55:55.603Z,27.62
2017-03-25T06:57:04.706Z,27.44
2017-03-25T06:58:13.808Z,27.44
2017-03-25T06:59:22.886Z,27.44
2017-03-25T07:00:32.551Z,27.53
2017-03-25T07:01:41.332Z,27.24
2017-03-25T07:02:51.037Z,27.34
2017-03-25T07:04:00.115Z,27.24
2017-03-25T07:05:09.191Z,27.34
2017-03-25T07:06:18.245Z,27.24
2017-03-25T07:07:27.033Z,26.86
2017-03-25T07:08:36.747Z,26.86
2017-03-25T07:09:46.441Z,27.04
2017-03-25T07:10:55.229Z,26.87
2017-03-25T07:12:04.408Z,26.57
2017-03-25T07:13:13.456Z,26.77
2017-03-25T07:14:22.510Z,26.29
2017-03-25T07:15:31.878Z,26.39
2017-03-25T07:16:40.630Z,26.87
2017-03-25T07:17:49.712Z,26.57
2017-03-25T07:18:59.132Z,26.57
2017-03-25T07:20:08.233Z,26.2
2017-03-25T07:21:17.029Z,26.01
2017-03-25T07:22:26.742Z,26.01
2017-03-25T07:23:36.188Z,25.72
2017-03-25T07:24:45.901Z,25.35
2017-03-25T07:25:54.932Z,25.73
2017-03-25T07:27:03.982Z,25.05
2017-03-25T07:28:13.085Z,24.96
2017-03-25T07:29:22.162Z,25.05
2017-03-25T07:30:31.189Z,24.67
2017-03-25T07:31:39.933Z,25.07
2017-03-25T07:32:49.335Z,24.68
2017-03-25T07:33:58.731Z,24.68
2017-03-25T07:35:07.477Z,24.3
2017-03-25T07:36:16.599Z,24.11
2017-03-25T07:37:25.390Z,23.92
2017-03-25T07:38:34.769Z,23.92
2017-03-25T07:39:44.131Z,23.92
2017-03-25T07:40:53.259Z,23.82
2017-03-25T07:42:02.046Z,23.74
2017-03-25T07:43:11.448Z,23.25
2017-03-25T07:44:20.555Z,23.35
2017-03-25T07:45:30.272Z,23.26
2017-03-25T07:46:39.069Z,23.16
2017-03-25T07:47:48.167Z,22.97
2017-03-25T07:48:57.274Z,22.88
2017-03-25T07:50:06.997Z,22.58
2017-03-25T07:51:15.785Z,22.58
2017-03-25T07:52:24.845Z,22.49
2017-03-25T07:53:34.207Z,22.11
2017-03-25T07:54:43.306Z,22.5
2017-03-25T07:55:52.402Z,22.5
2017-03-25T07:57:01.505Z,21.82
2017-03-25T07:58:11.521Z,22.11
2017-03-25T07:59:20.927Z,22.11
2017-03-25T08:00:30.030Z,22.02
2017-03-25T08:01:38.791Z,21.92
2017-03-25T08:02:47.891Z,22.2
2017-03-25T08:03:57.905Z,21.92
2017-03-25T08:05:07.021Z,21.92
2017-03-25T08:06:16.453Z,22.5
2017-03-25T08:07:25.511Z,22.2
2017-03-25T08:08:34.892Z,22.3
2017-03-25T08:09:43.994Z,21.82
2017-03-25T08:10:52.765Z,22.5
2017-03-25T08:12:01.819Z,22.4
2017-03-25T08:13:10.608Z,22.6
2017-03-25T08:14:20.009Z,22.4
2017-03-25T08:15:30.075Z,22.2
2017-03-25T08:16:39.156Z,22.6
2017-03-25T08:17:48.809Z,22.69
2017-03-25T08:18:57.915Z,22.6
2017-03-25T08:20:07.009Z,22.5
2017-03-25T08:21:16.083Z,22.68
2017-03-25T08:22:25.136Z,22.99
2017-03-25T08:23:34.219Z,22.69
2017-03-25T08:24:44.200Z,22.5
2017-03-25T08:25:53.288Z,22.69
2017-03-25T08:27:02.372Z,22.6
2017-03-25T08:28:11.467Z,22.6
2017-03-25T08:29:20.568Z,22.3
2017-03-25T08:30:29.965Z,22.69
2017-03-25T08:31:39.070Z,22.5
2017-03-25T08:32:48.466Z,22.89
2017-03-25T08:33:57.593Z,22.6
2017-03-25T08:35:06.382Z,22.6
2017-03-25T08:36:15.170Z,22.3
2017-03-25T08:37:23.934Z,22.11
2017-03-25T08:38:33.049Z,22.11
2017-03-25T08:39:42.139Z,22.4
2017-03-25T08:40:50.891Z,22.4
2017-03-25T08:41:59.635Z,22.61
2017-03-25T08:43:08.627Z,21.92
2017-03-25T08:44:17.725Z,22.02
2017-03-25T08:45:26.828Z,22.12
2017-03-25T08:46:36.842Z,22.2
2017-03-25T08:47:45.925Z,22.12
2017-03-25T08:48:55.633Z,22.12
2017-03-25T08:50:04.477Z,22.12
2017-03-25T08:51:13.318Z,22.12
2017-03-25T08:52:22.084Z,22.02
2017-03-25T08:53:30.871Z,22.02
2017-03-25T08:54:39.968Z,22.22
2017-03-25T08:55:49.078Z,22.22
2017-03-25T08:56:58.183Z,22.22
2017-03-25T08:58:06.976Z,22.12
2017-03-25T08:59:16.687Z,22.22
2017-03-25T09:00:26.096Z,22.02
2017-03-25T09:01:35.515Z,22.31
2017-03-25T09:02:44.304Z,21.84
2017-03-25T09:03:54.023Z,21.75
2017-03-25T09:05:03.103Z,21.94
2017-03-25T09:06:11.843Z,21.84
2017-03-25T09:07:21.996Z,21.75
2017-03-25T09:08:31.052Z,21.75
2017-03-25T09:09:40.434Z,21.94
2017-03-25T09:10:50.095Z,21.55
2017-03-25T09:11:59.199Z,21.16
2017-03-25T09:13:08.301Z,20.98
2017-03-25T09:14:17.696Z,21.17
2017-03-25T09:15:27.059Z,20.88
2017-03-25T09:16:36.459Z,20.78
2017-03-25T09:17:45.569Z,20.99
2017-03-25T09:18:54.659Z,20.31
2017-03-25T09:20:04.065Z,19.64
2017-03-25T09:21:13.467Z,19.16
2017-03-25T09:22:22.262Z,18.19
2017-03-25T09:23:31.661Z,18.01
2017-03-25T09:24:41.072Z,17.44
2017-03-25T09:25:50.141Z,16.86
2017-03-25T09:26:59.703Z,16.39
2017-03-25T09:28:08.785Z,16.1
2017-03-25T09:29:18.141Z,15.43
2017-03-25T09:30:27.217Z,14.85
2017-03-25T09:31:36.278Z,14.47
2017-03-25T09:32:45.375Z,13.2
2017-03-25T09:33:55.391Z,12.72
2017-03-25T09:35:04.503Z,12.23
2017-03-25T09:36:13.586Z,11.94
2017-03-25T09:37:22.554Z,11.65
2017-03-25T09:38:31.937Z,11.26
2017-03-25T09:39:41.314Z,10.48
2017-03-25T09:40:50.437Z,10
2017-03-25T09:41:59.233Z,9.7
2017-03-25T09:43:08.681Z,9.7
2017-03-25T09:44:18.711Z,9.21
2017-03-25T09:45:28.123Z,9.22
2017-03-25T09:46:36.918Z,8.93
2017-03-25T09:47:46.016Z,8.53
2017-03-25T09:48:55.731Z,8.05
2017-03-25T09:50:05.165Z,7.76
2017-03-25T09:51:13.963Z,7.56
2017-03-25T09:52:23.071Z,7.56
2017-03-25T09:53:32.732Z,6.88
2017-03-25T09:54:41.848Z,7.28
2017-03-25T09:55:50.950Z,6.59
2017-03-25T09:57:00.054Z,6.3
2017-03-25T09:58:09.358Z,6.49
2017-03-25T09:59:18.133Z,6.01
2017-03-25T10:00:27.806Z,6.3
2017-03-25T10:01:36.913Z,6.01
2017-03-25T10:02:46.028Z,5.71
2017-03-25T10:03:56.059Z,5.91
2017-03-25T10:05:05.133Z,5.91
2017-03-25T10:06:13.890Z,5.32
2017-03-25T10:07:22.995Z,5.02
2017-03-25T10:08:32.301Z,5.22
2017-03-25T10:09:42.300Z,5.22
2017-03-25T10:10:51.985Z,5.22
2017-03-25T10:12:00.787Z,4.93
2017-03-25T10:13:09.549Z,4.73
2017-03-25T10:14:18.652Z,4.93
2017-03-25T10:15:27.909Z,4.24
2017-03-25T10:16:37.017Z,4.05
2017-03-25T10:17:45.803Z,3.94
2017-03-25T10:18:55.516Z,4.34
2017-03-25T10:20:04.637Z,3.95
2017-03-25T10:21:14.046Z,4.14
2017-03-25T10:22:23.143Z,4.34
2017-03-25T10:23:32.807Z,4.25
2017-03-25T10:24:42.822Z,4.14
2017-03-25T10:25:51.626Z,3.66
2017-03-25T10:27:00.700Z,3.66
2017-03-25T10:28:09.803Z,3.56
2017-03-25T10:29:18.910Z,3.16
2017-03-25T10:30:28.071Z,2.97
2017-03-25T10:31:37.474Z,3.26
2017-03-25T10:32:46.893Z,2.87
2017-03-25T10:33:56.314Z,3.06
2017-03-25T10:35:05.109Z,2.97
2017-03-25T10:36:14.514Z,3.06
2017-03-25T10:37:23.888Z,2.97
2017-03-25T10:38:32.950Z,2.77
2017-03-25T10:39:42.665Z,2.87
2017-03-25T10:40:51.760Z,2.67
2017-03-25T10:42:00.755Z,2.67
2017-03-25T10:43:10.390Z,2.87
2017-03-25T10:44:20.161Z,2.77
2017-03-25T10:45:29.908Z,2.17
2017-03-25T10:46:39.008Z,2.67
2017-03-25T10:47:48.215Z,2.77
2017-03-25T10:48:57.558Z,2.57
2017-03-25T10:50:06.918Z,2.37
2017-03-25T10:51:16.298Z,1.68
2017-03-25T10:52:25.058Z,2.08
2017-03-25T10:53:33.847Z,1.98
2017-03-25T10:54:43.152Z,1.88
2017-03-25T10:55:52.257Z,1.68
2017-03-25T10:57:01.046Z,2.28
2017-03-25T10:58:09.810Z,2.37
2017-03-25T10:59:18.874Z,2.37
2017-03-25T11:00:27.980Z,1.88
2017-03-25T11:01:37.073Z,2.08
2017-03-25T11:02:46.152Z,2.18
2017-03-25T11:03:55.206Z,2.18
2017-03-25T11:05:04.589Z,1.98
2017-03-25T11:06:13.646Z,1.88
2017-03-25T11:07:23.026Z,1.68
2017-03-25T11:08:32.089Z,1.88
2017-03-25T11:09:42.111Z,1.88
2017-03-25T11:10:51.515Z,1.29
2017-03-25T11:12:00.890Z,1.68
2017-03-25T11:13:10.268Z,1.39
2017-03-25T11:14:19.950Z,1.68
2017-03-25T11:15:29.321Z,1.89
2017-03-25T11:16:38.434Z,1.48
2017-03-25T11:17:47.206Z,1.29
2017-03-25T11:18:57.196Z,1.48
2017-03-25T11:20:06.930Z,1.48
2017-03-25T11:21:16.031Z,1.09
2017-03-25T11:22:25.126Z,1.48
2017-03-25T11:23:34.208Z,1.29
2017-03-25T11:24:43.563Z,1.39
2017-03-25T11:25:53.478Z,0.69
2017-03-25T11:27:02.579Z,0.99
2017-03-25T11:28:12.300Z,0.89
2017-03-25T11:29:22.608Z,0.69
2017-03-25T11:30:31.982Z,0.69
2017-03-25T11:31:41.082Z,0.69
2017-03-25T11:32:49.927Z,0.99
2017-03-25T11:33:58.730Z,1.19
2017-03-25T11:35:08.440Z,1.39
2017-03-25T11:36:17.517Z,0.99
2017-03-25T11:37:26.557Z,0.89
2017-03-25T11:38:35.608Z,0.59
2017-03-25T11:39:44.992Z,1.39
2017-03-25T11:40:54.404Z,1.09
2017-03-25T11:42:03.476Z,0.99
2017-03-25T11:43:12.240Z,0.89
2017-03-25T11:44:21.976Z,0.99
2017-03-25T11:45:31.552Z,0.7
2017-03-25T11:46:41.014Z,1.19
2017-03-25T11:47:50.729Z,1.29
2017-03-25T11:48:59.844Z,1.09
2017-03-25T11:50:08.957Z,1.09
2017-03-25T11:51:18.676Z,1.19
2017-03-25T11:52:27.788Z,0.99
2017-03-25T11:53:36.868Z,0.49
2017-03-25T11:54:46.542Z,0.4
2017-03-25T11:55:55.621Z,0.49
2017-03-25T11:57:04.685Z,0.4
2017-03-25T11:58:13.790Z,0.49
2017-03-25T11:59:23.200Z,0.29
2017-03-25T12:00:32.616Z,0.49
2017-03-25T12:01:42.325Z,0.29
2017-03-25T12:02:51.433Z,0.29
2017-03-25T12:04:01.460Z,0.79
2017-03-25T12:05:10.889Z,0.69
2017-03-25T12:06:20.608Z,1.18
2017-03-25T12:07:29.506Z,1.58
2017-03-25T12:08:38.925Z,2.27
2017-03-25T12:09:48.029Z,2.86
2017-03-25T12:10:57.137Z,3.25
2017-03-25T12:12:06.218Z,3.84
2017-03-25T12:13:15.902Z,3.94
2017-03-25T12:14:25.630Z,4.33
2017-03-25T12:15:34.744Z,4.33
2017-03-25T12:16:43.557Z,4.72
2017-03-25T12:17:52.672Z,5.2
2017-03-25T12:19:02.087Z,5.2
2017-03-25T12:20:11.495Z,5.59
2017-03-25T12:21:20.574Z,6.08
2017-03-25T12:22:29.325Z,6.17
2017-03-25T12:23:39.046Z,6.67
2017-03-25T12:24:48.157Z,6.95
2017-03-25T12:25:57.264Z,6.95
2017-03-25T12:27:06.668Z,7.04
2017-03-25T12:28:16.393Z,7.53
2017-03-25T12:29:26.101Z,7.82
2017-03-25T12:30:35.468Z,7.92
2017-03-25T12:31:44.810Z,8.11
2017-03-25T12:32:53.603Z,8.31
2017-03-25T12:34:03.020Z,8.21
2017-03-25T12:35:12.105Z,8.4
2017-03-25T12:36:21.170Z,8.59
2017-03-25T12:37:30.488Z,9.08
2017-03-25T12:38:40.146Z,8.98
2017-03-25T12:39:48.907Z,8.78
2017-03-25T12:40:58.311Z,9.08
2017-03-25T12:42:07.716Z,9.17
2017-03-25T12:43:16.511Z,9.27
2017-03-25T12:44:25.603Z,9.17
2017-03-25T12:45:34.711Z,9.17
2017-03-25T12:46:43.515Z,9.16
2017-03-25T12:47:52.948Z,9.55
2017-03-25T12:49:02.356Z,9.74
2017-03-25T12:50:11.468Z,9.84
2017-03-25T12:51:20.266Z,10.13
2017-03-25T12:52:29.366Z,10.03
2017-03-25T12:53:38.460Z,10.52
2017-03-25T12:54:47.871Z,10.71
2017-03-25T12:55:57.243Z,10.51
2017-03-25T12:57:06.590Z,10.41
2017-03-25T12:58:16.263Z,10.51
2017-03-25T12:59:25.645Z,10.71
2017-03-25T13:00:35.011Z,11
2017-03-25T13:01:43.800Z,10.8
2017-03-25T13:02:52.915Z,10.8
2017-03-25T13:04:02.334Z,11.19
2017-03-25T13:05:11.135Z,11.48
2017-03-25T13:06:20.536Z,11.68
2017-03-25T13:07:29.373Z,11.48
2017-03-25T13:08:38.786Z,11.18
2017-03-25T13:09:47.884Z,11.38
2017-03-25T13:10:56.988Z,11.38
2017-03-25T13:12:06.677Z,11.47
2017-03-25T13:13:15.748Z,11.47
2017-03-25T13:14:25.211Z,11.38
2017-03-25T13:15:34.933Z,11.57
2017-03-25T13:16:44.288Z,11.86
2017-03-25T13:17:53.417Z,11.66
2017-03-25T13:19:02.837Z,11.76
2017-03-25T13:20:11.940Z,11.66
2017-03-25T13:21:21.670Z,11.85
2017-03-25T13:22:30.634Z,11.76
2017-03-25T13:23:39.711Z,11.56
2017-03-25T13:24:49.086Z,11.95
2017-03-25T13:25:58.465Z,11.46
2017-03-25T13:27:07.222Z,11.46
2017-03-25T13:28:16.329Z,11.55
2017-03-25T13:29:26.047Z,11.75
2017-03-25T13:30:35.144Z,11.75
2017-03-25T13:31:44.244Z,11.94
2017-03-25T13:32:53.038Z,12.04
2017-03-25T13:34:02.111Z,12.04
2017-03-25T13:35:11.779Z,11.94
2017-03-25T13:36:20.575Z,12.14
2017-03-25T13:37:29.469Z,12.43
2017-03-25T13:38:38.855Z,12.43
2017-03-25T13:39:48.398Z,12.13
2017-03-25T13:40:58.364Z,12.33
2017-03-25T13:42:07.466Z,12.43
2017-03-25T13:43:16.537Z,12.52
2017-03-25T13:44:25.618Z,12.71
2017-03-25T13:45:35.079Z,12.43
2017-03-25T13:46:44.495Z,12.91
2017-03-25T13:47:53.910Z,12.62
2017-03-25T13:49:03.661Z,12.62
2017-03-25T13:50:13.371Z,12.81
2017-03-25T13:51:22.436Z,13.1
2017-03-25T13:52:31.230Z,12.91
2017-03-25T13:53:40.638Z,13.1
2017-03-25T13:54:50.357Z,13.01
2017-03-25T13:55:59.464Z,13.2
2017-03-25T13:57:08.265Z,13.2
2017-03-25T13:58:17.670Z,13.2
2017-03-25T13:59:27.333Z,13.2
2017-03-25T14:00:36.402Z,13.29
2017-03-25T14:01:45.478Z,13.29
2017-03-25T14:02:54.570Z,13.29
2017-03-25T14:04:03.942Z,13.39
2017-03-25T14:05:12.971Z,13.68
2017-03-25T14:06:21.721Z,13.48
2017-03-25T14:07:30.534Z,13.48
2017-03-25T14:08:39.943Z,13.68
2017-03-25T14:09:49.365Z,13.68
2017-03-25T14:10:58.469Z,13.48
2017-03-25T14:12:07.574Z,13.78
2017-03-25T14:13:16.671Z,13.57
2017-03-25T14:14:25.779Z,13.57
2017-03-25T14:15:34.568Z,13.48
2017-03-25T14:16:43.661Z,13.77
2017-03-25T14:17:52.761Z,13.67
2017-03-25T14:19:01.903Z,13.87
2017-03-25T14:20:11.928Z,13.67
2017-03-25T14:21:21.338Z,13.87
2017-03-25T14:22:30.747Z,14.06
2017-03-25T14:23:40.468Z,13.77
2017-03-25T14:24:49.578Z,14.16
2017-03-25T14:25:58.986Z,14.06
2017-03-25T14:27:07.763Z,14.16
2017-03-25T14:28:16.867Z,14.25
2017-03-25T14:29:25.665Z,13.67
2017-03-25T14:30:35.079Z,14.16
2017-03-25T14:31:44.492Z,14.06
2017-03-25T14:32:53.593Z,13.96
2017-03-25T14:34:02.695Z,14.25
2017-03-25T14:35:12.416Z,14.06
2017-03-25T14:36:21.826Z,13.86
2017-03-25T14:37:30.768Z,14.06
2017-03-25T14:38:39.886Z,14.25
2017-03-25T14:39:48.992Z,14.25
2017-03-25T14:40:58.399Z,14.06
2017-03-25T14:42:07.189Z,13.47
2017-03-25T14:43:16.569Z,13.76
2017-03-25T14:44:25.678Z,13.76
2017-03-25T14:45:34.475Z,13.37
2017-03-25T14:46:43.239Z,13.66
2017-03-25T14:47:51.971Z,13.46
2017-03-25T14:49:01.648Z,13.66
2017-03-25T14:50:11.063Z,13.66
2017-03-25T14:51:20.176Z,13.66
2017-03-25T14:52:28.969Z,13.37
2017-03-25T14:53:38.096Z,13.27
2017-03-25T14:54:48.113Z,13.18
2017-03-25T14:55:56.914Z,13.66
2017-03-25T14:57:06.325Z,13.56
2017-03-25T14:58:15.756Z,13.56